Time;durP1;ratioP1;P1;durP2;ratioP2;P2;SDS_P1;SDS_P2;PMS_P1;PMS_P2;Temp;Humidity;BMP_temperature;BMP_pressure;BME280_temperature;BME280_humidity;BME280_pressure;Samples;Min_cycle;Max_cycle;Signal;HPM_P1;HPM_P2
2021/12/02 00:02:07;;;;;;;4.63;2.08;;;;;;;-3.85;85.04;97558.75;5043157;28;20033;-70
2021/12/02 00:04:36;;;;;;;4.50;2.45;;;;;;;-3.78;85.09;97570.59;5045077;28;20052;-70
2021/12/02 00:07:02;;;;;;;3.58;2.15;;;;;;;-3.79;84.94;97551.16;5046989;28;20055;-70
2021/12/02 00:09:29;;;;;;;7.45;3.05;;;;;;;-3.78;85.06;97559.59;5062029;28;20029;-72
2021/12/02 00:11:54;;;;;;;4.40;2.58;;;;;;;-3.76;85.10;97562.97;5047023;28;20022;-71
2021/12/02 00:14:24;;;;;;;5.10;2.92;;;;;;;-3.75;85.24;97562.13;5046856;28;20096;-71
2021/12/02 00:17:04;;;;;;;2.88;2.20;;;;;;;-3.72;85.12;97574.81;5046926;28;20026;-71
2021/12/02 00:22:15;;;;;;;2.80;2.17;;;;;;;-3.66;84.92;97574.84;5046874;28;20579;-68
2021/12/02 00:24:46;;;;;;;2.88;2.30;;;;;;;-3.58;84.78;97577.41;5046566;28;20112;-70
2021/12/02 00:27:13;;;;;;;4.40;2.40;;;;;;;-3.63;85.07;97582.47;5062380;28;20032;-70
2021/12/02 00:29:41;;;;;;;3.53;2.53;;;;;;;-3.58;85.35;97571.50;5046257;28;20042;-71
2021/12/02 00:32:09;;;;;;;2.47;1.83;;;;;;;-3.50;84.98;97580.78;5046594;28;20080;-69
2021/12/02 00:34:54;;;;;;;3.58;2.42;;;;;;;-3.52;85.16;97572.34;5046699;28;20041;-69
2021/12/02 00:37:21;;;;;;;2.72;1.88;;;;;;;-3.38;85.02;97586.75;5046621;28;20030;-69
2021/12/02 00:39:47;;;;;;;2.90;1.63;;;;;;;-3.38;85.05;97589.28;5046101;28;20047;-70
2021/12/02 00:42:13;;;;;;;2.78;2.15;;;;;;;-3.40;85.02;97573.22;5046481;28;20025;-69
2021/12/02 00:44:39;;;;;;;3.10;2.10;;;;;;;-3.39;84.96;97573.25;5046554;28;20056;-70
2021/12/02 00:47:04;;;;;;;2.03;1.50;;;;;;;-3.36;84.83;97577.47;5046153;28;20025;-70
2021/12/02 00:49:30;;;;;;;3.35;2.13;;;;;;;-3.37;84.65;97585.94;5046176;28;20034;-70
2021/12/02 00:52:00;;;;;;;3.20;2.25;;;;;;;-3.28;84.88;97595.22;5046179;28;20036;-70
2021/12/02 00:54:27;;;;;;;2.40;1.73;;;;;;;-3.19;84.73;97591.84;5046239;28;20030;-72
2021/12/02 00:56:54;;;;;;;4.45;1.98;;;;;;;-3.25;84.44;97600.31;5046200;28;20036;-69
2021/12/02 00:59:21;;;;;;;2.47;1.67;;;;;;;-3.17;84.28;97565.66;5046316;28;20029;-71
2021/12/02 01:01:48;;;;;;;2.80;2.03;;;;;;;-3.16;84.27;97599.47;5045836;28;20478;-71
2021/12/02 01:04:21;;;;;;;2.28;1.77;;;;;;;-3.14;84.23;97607.94;5045931;28;20052;-72
2021/12/02 01:06:46;;;;;;;1.90;1.60;;;;;;;-3.19;84.22;97613.00;5046085;28;20244;-69
2021/12/02 01:09:12;;;;;;;3.70;2.10;;;;;;;-3.22;84.13;97609.59;5045573;28;20382;-71
2021/12/02 01:11:38;;;;;;;1.95;1.60;;;;;;;-3.16;84.53;97624.84;5045865;28;20036;-69
2021/12/02 01:14:04;;;;;;;2.92;1.58;;;;;;;-3.10;83.99;97614.72;5046146;28;20076;-71
2021/12/02 01:16:30;;;;;;;2.10;1.55;;;;;;;-3.15;84.37;97632.50;5046287;28;20044;-70
2021/12/02 01:18:56;;;;;;;3.38;2.15;;;;;;;-3.14;84.32;97613.88;5045894;28;20017;-74
2021/12/02 01:21:25;;;;;;;2.35;1.80;;;;;;;-3.16;84.12;97630.78;5045995;28;20022;-71
2021/12/02 01:23:58;;;;;;;4.25;1.52;;;;;;;-3.15;84.10;97637.56;5045962;28;20017;-70
2021/12/02 01:26:24;;;;;;;5.22;1.35;;;;;;;-3.13;84.11;97650.25;5045883;28;20272;-72
2021/12/02 01:28:50;;;;;;;3.75;1.80;;;;;;;-3.19;83.95;97650.22;5045751;28;20036;-72
2021/12/02 01:31:16;;;;;;;2.92;1.48;;;;;;;-3.09;83.84;97666.31;5060817;28;20045;-70
2021/12/02 01:33:44;;;;;;;2.05;1.50;;;;;;;-3.11;83.61;97663.78;5045799;28;20026;-70
2021/12/02 01:36:10;;;;;;;2.33;1.17;;;;;;;-3.16;83.75;97665.44;5045647;28;20017;-70
2021/12/02 01:38:36;;;;;;;2.00;1.42;;;;;;;-3.11;83.60;97658.72;5061104;28;20350;-72
2021/12/02 01:41:04;;;;;;;2.42;1.23;;;;;;;-3.13;83.63;97660.41;5045597;28;20025;-72
2021/12/02 01:43:44;;;;;;;2.25;1.45;;;;;;;-3.11;83.77;97668.84;5045675;28;20029;-70
2021/12/02 01:46:10;;;;;;;2.38;1.38;;;;;;;-3.14;83.72;97669.72;5045630;28;20437;-74
2021/12/02 01:48:40;;;;;;;2.10;1.63;;;;;;;-3.16;83.64;97679.00;5045512;28;20017;-71
2021/12/02 01:51:10;;;;;;;3.05;1.90;;;;;;;-3.15;83.34;97659.56;5045419;28;20025;-74
2021/12/02 01:53:38;;;;;;;1.55;1.45;;;;;;;-3.13;83.79;97693.41;5045468;28;20017;-70
2021/12/02 01:56:13;;;;;;;3.90;1.67;;;;;;;-3.13;83.42;97688.34;5045278;28;20088;-70
2021/12/02 01:58:43;;;;;;;2.47;1.60;;;;;;;-3.12;83.25;97692.56;5045409;28;20094;-69
2021/12/02 02:01:20;;;;;;;3.42;1.52;;;;;;;-3.09;83.13;97696.78;5044982;28;20025;-70
2021/12/02 02:03:48;;;;;;;1.38;1.27;;;;;;;-2.97;82.79;97695.97;5045129;28;20033;-71
2021/12/02 02:06:14;;;;;;;3.53;1.38;;;;;;;-3.07;83.26;97710.34;5045180;28;20017;-71
2021/12/02 02:08:44;;;;;;;2.85;1.52;;;;;;;-3.05;83.17;97708.66;5044920;28;20044;-72
2021/12/02 02:11:10;;;;;;;2.83;1.55;;;;;;;-2.91;82.44;97708.69;5044761;28;20032;-71
2021/12/02 02:13:36;;;;;;;1.67;1.20;;;;;;;-3.02;82.73;97714.56;5045065;28;20045;-71
2021/12/02 02:16:02;;;;;;;4.72;1.30;;;;;;;-3.03;82.75;97701.88;5044733;28;20028;-73
2021/12/02 02:18:27;;;;;;;1.48;1.15;;;;;;;-2.98;82.47;97712.91;5044822;28;20022;-74
2021/12/02 02:23:25;;;;;;;1.97;1.20;;;;;;;-3.05;82.39;97723.88;5045117;28;20112;-73
2021/12/02 02:25:51;;;;;;;3.97;1.23;;;;;;;-2.93;82.04;97721.38;5044352;28;20520;-72
2021/12/02 02:28:16;;;;;;;5.88;1.55;;;;;;;-2.93;82.35;97723.06;5044148;28;20028;-73
2021/12/02 02:30:42;;;;;;;1.58;1.20;;;;;;;-2.93;82.58;97733.22;5044471;28;20052;-71
2021/12/02 02:33:11;;;;;;;1.75;1.20;;;;;;;-2.90;82.36;97735.75;5044444;28;20044;-68
2021/12/02 02:35:37;;;;;;;1.55;1.20;;;;;;;-2.90;82.32;97743.38;5044529;28;20044;-69
2021/12/02 02:38:03;;;;;;;3.58;1.33;;;;;;;-2.87;82.17;97751.00;5044619;28;20030;-67
2021/12/02 02:40:30;;;;;;;5.28;1.63;;;;;;;-2.87;82.09;97743.38;5044264;28;20021;-70
2021/12/02 02:42:59;;;;;;;3.47;1.45;;;;;;;-2.87;82.09;97744.25;5044288;28;20024;-69
2021/12/02 02:45:25;;;;;;;2.30;1.48;;;;;;;-2.82;82.01;97756.94;5044406;28;20097;-72
2021/12/02 02:47:50;;;;;;;5.70;1.98;;;;;;;-2.77;82.26;97762.03;5043076;28;20060;-72
2021/12/02 02:50:17;;;;;;;2.10;1.23;;;;;;;-2.75;82.33;97773.88;5044384;28;20033;-72
2021/12/02 02:52:43;;;;;;;2.25;1.58;;;;;;;-2.75;82.22;97751.03;5044361;28;20025;-69
2021/12/02 02:55:12;;;;;;;1.60;1.30;;;;;;;-2.64;81.94;97751.06;5044074;28;20021;-72
2021/12/02 02:57:45;;;;;;;3.42;1.20;;;;;;;-2.66;81.94;97769.69;5044265;28;20039;-73
2021/12/02 03:00:15;;;;;;;4.95;2.17;;;;;;;-2.64;81.47;97781.56;5042527;28;20021;-73
2021/12/02 03:07:49;;;;;;;4.43;1.58;;;;;;;-2.88;81.52;97790.81;5044237;28;20029;-70
2021/12/02 03:13:11;;;;;;;1.80;1.40;;;;;;;-3.13;82.00;97797.47;5044171;28;20364;-72
2021/12/02 03:18:21;;;;;;;2.25;1.50;;;;;;;-3.16;82.18;97812.66;5043874;28;20079;-72
2021/12/02 03:20:46;;;;;;;3.20;1.80;;;;;;;-3.16;82.22;97812.66;5043682;28;20033;-75
2021/12/02 03:23:12;;;;;;;2.90;1.83;;;;;;;-3.20;82.19;97819.44;5043907;28;20022;-73
2021/12/02 03:25:37;;;;;;;2.72;1.95;;;;;;;-3.22;82.11;97825.31;5043280;28;20025;-71
2021/12/02 03:28:03;;;;;;;2.67;1.70;;;;;;;-3.28;82.29;97821.94;5042721;28;20022;-69
2021/12/02 03:30:29;;;;;;;2.72;2.08;;;;;;;-3.32;82.50;97822.72;5042951;28;20227;-73
2021/12/02 03:32:54;;;;;;;3.78;2.13;;;;;;;-3.40;82.63;97826.91;5058757;28;20171;-72
2021/12/02 03:35:20;;;;;;;4.13;2.58;;;;;;;-3.42;82.98;97833.69;5043586;28;20051;-69
2021/12/02 03:37:45;;;;;;;3.35;2.00;;;;;;;-3.43;83.02;97826.88;5043583;28;20063;-71
2021/12/02 03:40:12;;;;;;;2.45;1.60;;;;;;;-3.37;83.00;97835.41;5042521;28;20045;-71
2021/12/02 03:42:44;;;;;;;2.63;1.63;;;;;;;-3.32;83.11;97847.28;5043646;28;20085;-73
2021/12/02 03:45:09;;;;;;;3.83;2.58;;;;;;;-3.33;83.35;97848.09;5043315;28;20432;-73
2021/12/02 03:47:34;;;;;;;3.00;1.52;;;;;;;-3.31;83.51;97851.50;5043569;28;20048;-71
2021/12/02 03:50:00;;;;;;;3.53;1.85;;;;;;;-3.27;83.26;97861.69;5042976;28;20033;-70
2021/12/02 03:52:25;;;;;;;2.35;1.45;;;;;;;-3.30;83.37;97876.88;5043094;28;20026;-73
2021/12/02 03:54:50;;;;;;;5.70;1.60;;;;;;;-3.31;83.29;97870.13;5043045;28;20025;-72
2021/12/02 03:57:16;;;;;;;3.50;1.80;;;;;;;-3.36;83.25;97874.31;5043378;28;20083;-72
2021/12/02 03:59:41;;;;;;;2.15;1.67;;;;;;;-3.28;83.33;97862.53;5043065;28;20021;-73
2021/12/02 04:02:06;;;;;;;2.55;1.73;;;;;;;-3.20;83.08;97884.56;5043095;28;20029;-70
2021/12/02 04:04:32;;;;;;;7.00;2.47;;;;;;;-3.19;83.29;97886.25;5043169;28;20029;-70
2021/12/02 04:06:57;;;;;;;8.45;2.20;;;;;;;-3.27;83.35;97881.97;5043234;28;20041;-69
2021/12/02 04:09:25;;;;;;;2.60;1.83;;;;;;;-3.18;83.46;97905.72;5043011;28;20474;-71
2021/12/02 04:11:59;;;;;;;3.08;1.60;;;;;;;-3.13;83.39;97899.00;5042911;28;20434;-73
2021/12/02 04:14:39;;;;;;;6.15;1.83;;;;;;;-3.12;83.47;97905.75;5043146;28;20028;-74
2021/12/02 04:17:06;;;;;;;4.85;1.83;;;;;;;-3.06;83.29;97910.00;5043181;28;20030;-70
2021/12/02 04:19:32;;;;;;;3.58;1.60;;;;;;;-3.04;83.26;97924.44;5043284;28;20454;-72
2021/12/02 04:21:58;;;;;;;2.50;1.70;;;;;;;-3.02;83.05;97909.22;5042871;28;20033;-74
2021/12/02 04:24:24;;;;;;;1.50;1.40;;;;;;;-3.01;82.98;97896.53;5041445;28;20025;-72
2021/12/02 04:26:50;;;;;;;1.55;1.33;;;;;;;-2.94;82.70;97914.34;5043031;28;20018;-75
2021/12/02 04:29:16;;;;;;;3.28;1.83;;;;;;;-3.02;83.12;97911.75;5041201;28;20056;-72
2021/12/02 04:31:43;;;;;;;3.17;1.88;;;;;;;-3.05;82.89;97886.34;5042738;28;20061;-74
2021/12/02 04:34:10;;;;;;;3.05;1.83;;;;;;;-3.02;82.60;97911.75;5043110;28;20089;-73
2021/12/02 04:36:35;;;;;;;3.80;1.90;;;;;;;-2.97;82.73;97929.56;5042962;28;20060;-73
2021/12/02 04:39:01;;;;;;;1.85;1.67;;;;;;;-3.05;82.65;97921.88;5042806;28;20026;-76
2021/12/02 04:41:27;;;;;;;3.08;1.63;;;;;;;-3.01;82.56;97938.84;5042460;28;20025;-73
2021/12/02 04:43:52;;;;;;;2.60;1.80;;;;;;;-2.97;82.46;97924.47;5042891;28;20512;-67
2021/12/02 04:46:17;;;;;;;3.08;1.52;;;;;;;-3.01;82.70;97949.84;5042557;28;20025;-72
2021/12/02 04:48:43;;;;;;;3.10;1.90;;;;;;;-2.94;82.36;97950.72;5042852;28;20098;-72
2021/12/02 04:51:08;;;;;;;2.50;1.55;;;;;;;-3.00;82.47;97955.75;5044737;28;20060;-72
2021/12/02 04:53:34;;;;;;;2.45;1.50;;;;;;;-3.02;82.29;97947.28;5046662;28;20021;-73
2021/12/02 04:55:59;;;;;;;2.10;1.42;;;;;;;-3.07;81.87;97948.94;5045043;28;20026;-71
2021/12/02 04:58:24;;;;;;;1.65;1.52;;;;;;;-3.05;81.52;97968.41;5045410;28;20041;-70
2021/12/02 05:00:51;;;;;;;1.95;1.17;;;;;;;-3.13;81.53;97935.38;5043808;28;20028;-73
2021/12/02 05:03:16;;;;;;;1.35;1.08;;;;;;;-3.04;80.87;97962.53;5046247;28;20024;-72
2021/12/02 05:05:42;;;;;;;4.90;1.55;;;;;;;-3.14;81.18;97970.88;5044863;28;20108;-72
2021/12/02 05:08:07;;;;;;;1.23;1.00;;;;;;;-3.16;81.38;97970.88;5061848;28;20430;-71
2021/12/02 05:10:32;;;;;;;2.75;1.42;;;;;;;-3.19;81.29;97972.53;5045876;28;20045;-71
2021/12/02 05:12:58;;;;;;;3.58;1.63;;;;;;;-3.17;81.71;97989.50;5045747;28;20057;-71
2021/12/02 05:15:24;;;;;;;1.73;1.40;;;;;;;-3.14;81.53;97986.97;5045589;28;20022;-71
2021/12/02 05:17:49;;;;;;;3.72;1.20;;;;;;;-3.14;81.55;97991.19;5060890;28;20025;-70
2021/12/02 05:20:15;;;;;;;2.30;1.38;;;;;;;-3.14;81.54;97992.06;5045378;28;20408;-70
2021/12/02 05:22:40;;;;;;;1.63;1.02;;;;;;;-3.12;81.90;97998.00;5045532;28;20029;-69
2021/12/02 05:25:07;;;;;;;1.50;1.20;;;;;;;-3.07;81.61;97999.72;5043666;28;20055;-70
2021/12/02 05:27:32;;;;;;;2.05;1.10;;;;;;;-3.03;81.39;97976.03;5045099;28;20052;-72
2021/12/02 05:29:57;;;;;;;3.60;1.70;;;;;;;-2.98;81.42;98004.84;5045157;28;20517;-69
2021/12/02 05:32:23;;;;;;;1.90;1.38;;;;;;;-3.00;81.51;98001.44;5045219;28;20025;-71
2021/12/02 05:34:49;;;;;;;1.92;1.73;;;;;;;-3.02;81.38;97993.00;5045123;28;20018;-70
2021/12/02 05:37:16;;;;;;;3.53;1.23;;;;;;;-2.95;80.92;98019.25;5045446;28;20044;-70
2021/12/02 05:39:42;;;;;;;3.88;1.40;;;;;;;-3.02;80.94;98013.31;5044948;28;20029;-71
2021/12/02 05:42:07;;;;;;;2.25;0.98;;;;;;;-3.03;81.11;98024.28;5044966;28;20033;-69
2021/12/02 05:44:32;;;;;;;2.28;1.48;;;;;;;-3.02;81.16;98018.38;5044943;28;20163;-70
2021/12/02 05:46:58;;;;;;;4.07;1.45;;;;;;;-3.03;80.96;98025.13;5045068;28;20032;-70
2021/12/02 05:49:23;;;;;;;3.15;1.52;;;;;;;-3.02;80.78;98014.13;5044928;28;20018;-71
2021/12/02 05:51:49;;;;;;;1.92;1.17;;;;;;;-3.02;80.59;98034.44;5044766;28;20025;-71
2021/12/02 05:54:14;;;;;;;1.40;1.00;;;;;;;-3.08;80.79;98034.41;5044563;28;20060;-69
2021/12/02 05:56:40;;;;;;;5.40;1.52;;;;;;;-3.09;80.77;98037.78;5044706;28;20033;-70
2021/12/02 05:59:06;;;;;;;1.27;1.17;;;;;;;-3.08;80.77;98039.47;5044794;28;20021;-70
2021/12/02 06:01:32;;;;;;;2.33;1.70;;;;;;;-3.15;80.32;98047.88;5044180;28;20039;-70
2021/12/02 06:03:57;;;;;;;2.75;1.63;;;;;;;-3.06;80.50;98058.13;5044532;28;20086;-70
2021/12/02 06:06:25;;;;;;;2.40;1.70;;;;;;;-3.08;80.32;98069.09;5044720;28;20034;-69
2021/12/02 06:08:50;;;;;;;1.70;1.20;;;;;;;-3.04;80.04;98076.75;5044886;28;20028;-70
2021/12/02 06:11:16;;;;;;;3.40;1.30;;;;;;;-3.09;79.98;98080.94;5059729;28;20018;-71
2021/12/02 06:13:42;;;;;;;1.73;1.27;;;;;;;-3.12;79.67;98088.53;5044557;28;20033;-71
2021/12/02 06:16:08;;;;;;;1.20;1.08;;;;;;;-3.11;79.34;98095.28;5044428;28;20051;-71
2021/12/02 06:18:33;;;;;;;1.42;1.02;;;;;;;-3.18;78.94;98103.69;5044532;28;20033;-70
2021/12/02 06:20:59;;;;;;;2.20;1.60;;;;;;;-3.21;78.26;98107.03;5044415;28;20026;-75
2021/12/02 06:23:24;;;;;;;2.15;1.02;;;;;;;-3.37;78.12;98119.56;5044387;28;20029;-74
2021/12/02 06:25:50;;;;;;;4.32;0.95;;;;;;;-3.31;77.67;98128.97;5044148;28;20026;-72
2021/12/02 06:28:17;;;;;;;1.85;1.17;;;;;;;-3.40;77.95;98156.75;5044276;28;20025;-71
2021/12/02 06:30:43;;;;;;;2.97;1.38;;;;;;;-3.39;77.84;98141.56;5044092;28;20069;-71
2021/12/02 06:33:09;;;;;;;2.15;1.10;;;;;;;-3.40;77.74;98149.13;5044422;28;20033;-71
2021/12/02 06:35:35;;;;;;;1.45;1.20;;;;;;;-3.54;77.74;98147.28;5044332;28;20038;-70
2021/12/02 06:38:03;;;;;;;1.40;1.00;;;;;;;-3.52;77.93;98153.25;5059494;28;20222;-73
2021/12/02 06:40:29;;;;;;;3.33;2.00;;;;;;;-3.59;77.96;98159.06;5044084;28;20018;-72
2021/12/02 06:42:55;;;;;;;2.15;1.38;;;;;;;-3.53;77.98;98160.84;5044447;28;20257;-73
2021/12/02 06:45:20;;;;;;;3.13;1.20;;;;;;;-3.55;78.15;98168.44;5044167;28;20262;-71
2021/12/02 06:47:47;;;;;;;1.23;1.08;;;;;;;-3.58;78.04;98175.16;5044010;28;20094;-71
2021/12/02 06:50:18;;;;;;;1.20;1.10;;;;;;;-3.57;78.32;98167.56;5044015;28;20088;-71
2021/12/02 06:52:49;;;;;;;2.92;1.30;;;;;;;-3.59;78.26;98171.75;5043828;28;20029;-71
2021/12/02 06:55:14;;;;;;;6.50;1.63;;;;;;;-3.63;78.41;98178.50;5043465;28;20021;-71
2021/12/02 06:57:41;;;;;;;4.90;2.50;;;;;;;-3.63;78.44;98163.28;5043935;28;20029;-71
2021/12/02 07:00:09;;;;;;;1.52;0.73;;;;;;;-3.67;78.38;98179.25;5043851;28;20028;-70
2021/12/02 07:02:36;;;;;;;2.22;1.25;;;;;;;-3.65;78.37;98176.75;5043894;28;20341;-71
2021/12/02 07:05:03;;;;;;;2.22;1.20;;;;;;;-3.68;78.17;98187.72;5043715;28;20090;-71
2021/12/02 07:07:33;;;;;;;1.42;1.10;;;;;;;-3.70;77.96;98202.03;5043715;28;20018;-72
2021/12/02 07:09:59;;;;;;;2.72;1.23;;;;;;;-3.75;78.16;98208.72;5043378;28;20519;-70
2021/12/02 07:12:32;;;;;;;4.25;1.52;;;;;;;-3.74;78.14;98211.28;5042505;28;20032;-72
2021/12/02 07:14:59;;;;;;;6.25;1.52;;;;;;;-3.78;77.98;98218.84;5043781;28;20103;-72
2021/12/02 07:17:24;;;;;;;1.77;1.40;;;;;;;-3.86;77.62;98211.97;5059248;28;20026;-74
2021/12/02 07:19:50;;;;;;;1.80;1.08;;;;;;;-3.82;77.71;98214.56;5043618;28;20093;-71
2021/12/02 07:22:15;;;;;;;2.70;1.23;;;;;;;-3.88;77.65;98221.25;5043675;28;20022;-70
2021/12/02 07:24:41;;;;;;;3.58;1.20;;;;;;;-3.90;77.30;98224.59;5043366;28;20575;-71
2021/12/02 07:27:06;;;;;;;2.75;1.20;;;;;;;-3.93;77.55;98232.16;5043286;28;20021;-70
2021/12/02 07:29:32;;;;;;;2.45;1.20;;;;;;;-4.01;77.65;98232.88;5042673;28;20072;-71
2021/12/02 07:32:04;;;;;;;2.97;1.20;;;;;;;-4.02;77.33;98240.47;5043649;28;20156;-71
2021/12/02 07:34:34;;;;;;;1.85;1.73;;;;;;;-4.01;77.16;98242.19;5043669;28;20022;-71
2021/12/02 07:37:01;;;;;;;1.73;1.10;;;;;;;-4.04;77.48;98260.72;5043516;28;20052;-72
2021/12/02 07:39:26;;;;;;;1.60;1.02;;;;;;;-4.11;77.34;98256.41;5043159;28;20074;-71
2021/12/02 07:41:52;;;;;;;5.15;1.40;;;;;;;-4.09;77.73;98264.88;5043202;28;20025;-71
2021/12/02 07:44:18;;;;;;;1.20;1.10;;;;;;;-4.11;77.76;98276.66;5043201;28;20039;-72
2021/12/02 07:46:43;;;;;;;2.15;1.20;;;;;;;-4.24;77.53;98263.81;5043368;28;20028;-70
2021/12/02 07:49:12;;;;;;;2.80;1.20;;;;;;;-4.18;77.31;98288.38;5058496;28;20045;-71
2021/12/02 07:51:42;;;;;;;2.78;1.27;;;;;;;-4.27;77.55;98308.50;5043189;28;20033;-71
2021/12/02 07:54:08;;;;;;;1.80;1.27;;;;;;;-4.28;77.66;98307.63;5043237;28;20068;-71
2021/12/02 07:56:33;;;;;;;2.08;1.02;;;;;;;-4.31;77.92;98316.88;5043107;28;20022;-71
2021/12/02 07:58:59;;;;;;;1.65;1.13;;;;;;;-4.31;77.79;98321.94;5043309;28;20083;-71
2021/12/02 08:01:24;;;;;;;2.83;1.35;;;;;;;-4.34;77.52;98326.97;5043165;28;20077;-70
2021/12/02 08:03:51;;;;;;;3.55;1.30;;;;;;;-4.40;77.53;98320.09;5043406;28;20026;-71
2021/12/02 08:06:17;;;;;;;1.70;1.08;;;;;;;-4.43;77.33;98333.56;5042515;28;20032;-72
2021/12/02 08:08:45;;;;;;;1.50;1.35;;;;;;;-4.54;77.00;98338.44;5041728;28;20341;-71
2021/12/02 08:11:12;;;;;;;1.42;1.20;;;;;;;-4.56;76.91;98326.53;5042849;28;20025;-74
2021/12/02 08:13:38;;;;;;;2.50;1.27;;;;;;;-4.60;76.90;98328.19;5043109;28;20029;-72
2021/12/02 08:16:06;;;;;;;1.30;1.20;;;;;;;-4.61;77.23;98332.38;5042863;28;20045;-71
2021/12/02 08:18:33;;;;;;;1.40;1.00;;;;;;;-4.58;77.07;98334.13;5042998;28;20045;-72
2021/12/02 08:20:59;;;;;;;2.67;0.93;;;;;;;-4.60;76.66;98339.16;5042765;28;20029;-71
2021/12/02 08:23:26;;;;;;;2.80;1.40;;;;;;;-4.69;76.35;98343.19;5043012;28;20029;-72
2021/12/02 08:25:53;;;;;;;2.08;1.08;;;;;;;-4.68;76.68;98344.91;5044264;28;20036;-72
2021/12/02 08:28:18;;;;;;;1.70;0.98;;;;;;;-4.74;76.80;98360.81;5046780;28;20045;-72
2021/12/02 08:30:43;;;;;;;2.85;1.15;;;;;;;-4.69;76.40;98365.97;5046525;28;20046;-72
2021/12/02 08:33:12;;;;;;;2.55;1.20;;;;;;;-4.75;76.47;98352.38;5062347;28;20032;-73
2021/12/02 08:35:37;;;;;;;2.78;1.00;;;;;;;-4.74;76.77;98387.00;5062116;28;20028;-70
2021/12/02 08:38:14;;;;;;;1.50;1.20;;;;;;;-4.72;76.71;98366.78;5046832;28;20025;-72
2021/12/02 08:40:40;;;;;;;1.70;1.20;;;;;;;-4.73;76.77;98373.50;5046394;28;20032;-70
2021/12/02 08:43:09;;;;;;;5.97;1.58;;;;;;;-4.71;76.74;98372.69;5046783;28;20032;-71
2021/12/02 08:45:36;;;;;;;2.53;1.00;;;;;;;-4.68;76.83;98380.34;5046705;28;20110;-69
2021/12/02 08:48:02;;;;;;;15.02;1.30;;;;;;;-4.71;76.72;98391.25;5046551;28;20445;-70
2021/12/02 08:50:28;;;;;;;1.33;1.13;;;;;;;-4.76;77.05;98392.88;5046428;28;20067;-70
2021/12/02 08:52:58;;;;;;;1.15;1.05;;;;;;;-4.65;76.90;98390.53;5046725;28;20036;-71
2021/12/02 08:55:24;;;;;;;3.42;1.25;;;;;;;-4.64;76.89;98422.63;5046328;28;20013;-71
2021/12/02 08:57:52;;;;;;;1.45;1.30;;;;;;;-4.63;77.03;98426.88;5046721;28;20037;-68
2021/12/02 09:00:21;;;;;;;2.10;1.10;;;;;;;-4.60;76.72;98414.28;5046194;28;20025;-69
2021/12/02 09:02:46;;;;;;;4.25;1.23;;;;;;;-4.55;76.62;98434.66;5046258;28;20031;-70
2021/12/02 09:05:11;;;;;;;3.20;1.75;;;;;;;-4.62;76.90;98431.97;5046172;28;20073;-70
2021/12/02 09:07:37;;;;;;;2.38;1.30;;;;;;;-4.52;76.43;98427.13;5046232;28;20033;-71
2021/12/02 09:10:05;;;;;;;2.40;1.70;;;;;;;-4.58;76.59;98425.28;5046081;28;20022;-69
2021/12/02 09:12:31;;;;;;;2.80;1.77;;;;;;;-4.57;76.61;98411.81;5046212;28;20026;-70
2021/12/02 09:14:56;;;;;;;3.15;1.77;;;;;;;-4.53;76.77;98415.25;5045921;28;20028;-71
2021/12/02 09:17:22;;;;;;;1.98;1.45;;;;;;;-4.47;76.73;98440.69;5045883;28;20465;-69
2021/12/02 09:19:48;;;;;;;1.33;1.23;;;;;;;-4.42;76.72;98443.31;5045720;28;20464;-70
2021/12/02 09:22:14;;;;;;;3.08;1.42;;;;;;;-4.32;76.74;98445.25;5044633;28;20018;-69
2021/12/02 09:24:39;;;;;;;1.73;1.13;;;;;;;-4.31;76.58;98446.94;5044324;28;20036;-70
2021/12/02 09:27:05;;;;;;;5.35;1.77;;;;;;;-4.23;76.84;98445.41;5044456;28;20035;-70
2021/12/02 09:29:31;;;;;;;2.83;1.23;;;;;;;-4.11;76.69;98439.75;5044780;28;20049;-69
2021/12/02 09:31:56;;;;;;;2.60;1.02;;;;;;;-3.96;76.83;98448.44;5045557;28;20036;-69
2021/12/02 09:34:21;;;;;;;4.28;1.90;;;;;;;-3.73;76.87;98445.47;5060842;28;20021;-69
2021/12/02 09:36:47;;;;;;;4.85;1.55;;;;;;;-3.35;76.85;98446.94;5044380;28;20053;-69
2021/12/02 09:39:14;;;;;;;3.42;1.10;;;;;;;-3.02;75.96;98438.13;5045292;28;20087;-68
2021/12/02 09:41:41;;;;;;;3.58;1.55;;;;;;;-2.74;75.82;98446.16;5045190;28;20029;-68
2021/12/02 09:44:06;;;;;;;1.92;1.40;;;;;;;-2.46;75.21;98443.09;5045331;28;20524;-69
2021/12/02 09:46:34;;;;;;;2.15;1.58;;;;;;;-2.17;74.61;98451.94;5045538;28;20033;-69
2021/12/02 09:49:03;;;;;;;2.85;1.30;;;;;;;-2.02;73.34;98444.47;5045192;28;20018;-69
2021/12/02 09:51:38;;;;;;;4.38;1.40;;;;;;;-1.91;72.60;98456.44;5045133;28;20025;-70
2021/12/02 09:54:15;;;;;;;3.20;1.77;;;;;;;-1.93;71.93;98455.59;5043824;28;20025;-70
2021/12/02 09:56:43;;;;;;;6.97;1.40;;;;;;;-2.16;71.53;98468.91;5045183;28;20018;-73
2021/12/02 09:59:10;;;;;;;2.22;1.40;;;;;;;-2.43;71.67;98472.81;5045108;28;20056;-69
2021/12/02 10:01:49;;;;;;;1.85;1.10;;;;;;;-2.57;72.21;98467.53;5060283;28;20450;-67
2021/12/02 10:04:15;;;;;;;13.02;1.77;;;;;;;-2.66;72.07;98465.72;5044754;28;20143;-64
2021/12/02 10:06:42;;;;;;;3.78;1.85;;;;;;;-2.60;72.67;98475.97;5045064;28;20017;-69
2021/12/02 10:09:17;;;;;;;3.05;1.80;;;;;;;-2.41;72.46;98468.59;5045141;28;20104;-69
2021/12/02 10:12:32;;;;;;;3.20;1.85;;;;;;;-2.16;72.51;98468.91;5045119;28;20086;-70
2021/12/02 10:14:38;;;;;;;4.25;2.15;;;;;;;-2.05;71.96;98467.34;5044154;28;20030;-69
2021/12/02 10:17:13;;;;;;;4.13;1.38;;;;;;;-1.94;72.21;98461.50;5044832;28;20025;-69
2021/12/02 10:23:18;;;;;;;3.63;1.63;;;;;;;-1.93;72.61;98461.50;5042945;28;20068;-69
2021/12/02 10:25:57;;;;;;;1.65;1.33;;;;;;;-1.77;72.70;98466.75;5044307;28;20088;-71
2021/12/02 10:28:24;;;;;;;3.20;1.58;;;;;;;-1.66;71.96;98464.34;5044587;28;20029;-69
2021/12/02 10:30:53;;;;;;;2.42;1.23;;;;;;;-1.87;70.80;98453.13;5044375;28;20037;-69
2021/12/02 10:33:44;;;;;;;2.92;1.67;;;;;;;-2.09;71.86;98449.47;5044623;28;20021;-69
2021/12/02 10:36:33;;;;;;;1.95;1.40;;;;;;;-2.02;72.74;98475.00;5044188;28;20021;-71
2021/12/02 10:39:22;;;;;;;4.40;1.90;;;;;;;-1.97;72.74;98482.69;5044355;28;20036;-69
2021/12/02 10:42:04;;;;;;;6.82;2.10;;;;;;;-2.08;71.95;98487.66;5044027;28;20037;-69
2021/12/02 10:44:33;;;;;;;3.07;1.83;;;;;;;-2.25;71.67;98479.78;5044114;28;20021;-69
2021/12/02 10:47:08;;;;;;;4.78;1.65;;;;;;;-2.32;71.87;98483.97;5044143;28;20265;-68
2021/12/02 10:49:38;;;;;;;2.58;1.63;;;;;;;-2.41;71.29;98487.22;5043160;28;20139;-69
2021/12/02 10:52:06;;;;;;;3.55;1.60;;;;;;;-2.53;71.23;98487.06;5042096;28;20021;-69
2021/12/02 10:54:35;;;;;;;4.18;1.45;;;;;;;-2.51;70.98;98482.88;5041003;28;20081;-68
2021/12/02 10:57:17;;;;;;;3.50;1.95;;;;;;;-2.56;70.57;98482.81;5041762;28;20041;-69
2021/12/02 10:59:50;;;;;;;2.15;1.13;;;;;;;-2.65;70.09;98498.75;5041130;28;20539;-69
2021/12/02 11:02:30;;;;;;;6.43;1.67;;;;;;;-2.69;70.29;98506.31;5041026;28;20477;-69
2021/12/02 11:05:03;;;;;;;1.73;1.25;;;;;;;-2.51;69.11;98495.56;5041119;28;20081;-70
2021/12/02 11:07:39;;;;;;;3.28;1.60;;;;;;;-2.29;68.09;98498.41;5042856;28;20466;-69
2021/12/02 11:10:15;;;;;;;2.15;1.55;;;;;;;-2.02;67.31;98497.88;5043295;28;20025;-70
2021/12/02 11:12:49;;;;;;;2.80;1.40;;;;;;;-1.70;66.95;98508.38;5043692;28;20029;-69
2021/12/02 11:15:26;;;;;;;2.42;1.50;;;;;;;-1.22;66.36;98511.41;5044089;28;20384;-69
2021/12/02 11:17:59;;;;;;;4.28;1.52;;;;;;;-0.63;64.73;98509.31;5043978;28;20473;-70
2021/12/02 11:20:34;;;;;;;2.35;1.40;;;;;;;-0.63;63.27;98516.09;5043853;28;20083;-70
2021/12/02 11:23:02;;;;;;;2.58;1.33;;;;;;;-1.28;63.86;98524.91;5044140;28;20021;-70
2021/12/02 11:25:28;;;;;;;3.53;1.40;;;;;;;-2.01;65.06;98530.09;5043692;28;20037;-70
2021/12/02 11:27:54;;;;;;;1.73;1.20;;;;;;;-2.61;66.15;98527.63;5043250;28;20040;-70
2021/12/02 11:30:28;;;;;;;2.75;1.38;;;;;;;-3.16;67.18;98541.13;5042451;28;20092;-70
2021/12/02 11:32:58;;;;;;;3.15;1.45;;;;;;;-3.56;68.14;98537.09;5043826;28;20037;-69
2021/12/02 11:35:28;;;;;;;4.32;1.63;;;;;;;-3.84;69.00;98534.03;5043781;28;20014;-70
2021/12/02 11:38:08;;;;;;;1.75;1.40;;;;;;;-4.05;69.86;98532.78;5043759;28;20025;-70
2021/12/02 11:40:42;;;;;;;2.25;1.60;;;;;;;-4.19;70.10;98541.78;5043389;28;20017;-70
2021/12/02 11:43:11;;;;;;;3.65;1.65;;;;;;;-4.37;70.26;98543.97;5058999;28;20108;-70
2021/12/02 11:45:43;;;;;;;2.83;1.48;;;;;;;-4.53;70.72;98531.75;5058885;28;20022;-70
2021/12/02 11:48:11;;;;;;;3.95;1.63;;;;;;;-4.60;71.26;98535.84;5043758;28;20155;-70
2021/12/02 11:50:36;;;;;;;2.20;1.35;;;;;;;-4.62;71.51;98540.84;5043252;28;20040;-69
2021/12/02 11:53:01;;;;;;;3.75;2.08;;;;;;;-4.71;71.82;98522.94;5043269;28;20013;-70
2021/12/02 11:55:31;;;;;;;4.82;2.05;;;;;;;-4.74;71.89;98530.47;5043333;28;20025;-72
2021/12/02 11:57:58;;;;;;;5.95;1.60;;;;;;;-4.71;72.20;98529.69;5043477;28;20031;-71